Maldives Meteorological Service

SYNOP

Station Code SYNOP
43555
AAXX 19124 43555 12470 72711 10300 20250 30105 40107 60002 83251 333 10310 59011 83818 86078=
43533
AAXX 19124 43533 12465 72708 10292 20252 30106 40108 60002 83202 333 10312 59007 83818 87077=
43577
AAXX 19124 43577 11462 72307 10294 20254 30108 40110 60032 70281 83932 333 10320 59009 82817 81918 87076=
43588
AAXX 19124 43588 11465 72506 10296 20251 30107 40108 69902 72582 82232 333 10310 59007 82818 83363 86276=
43599
AAXX 19124 43599 12460 72505 10290 20253 30108 40110 69952 82272 333 10305 59008 82817 86361=
Last Updated : 2017-09-19 17:00:11